createdAt,value
2022-08-17T00:04:14.261Z,99818.00
2022-08-17T00:10:19.397Z,99820.00
2022-08-17T00:16:56.105Z,99810.00
2022-08-17T00:23:08.907Z,99813.00
2022-08-17T00:29:17.875Z,99807.00
2022-08-17T00:35:24.514Z,99821.00
2022-08-17T00:41:28.752Z,99804.00
2022-08-17T00:47:33.363Z,99799.00
2022-08-17T00:53:37.880Z,99813.00
2022-08-17T01:00:01.807Z,99805.00
2022-08-17T01:06:08.127Z,99824.00
2022-08-17T01:12:13.096Z,99827.00
2022-08-17T01:18:16.165Z,99830.00
2022-08-17T01:24:18.351Z,99821.00
2022-08-17T01:30:56.628Z,99820.00
2022-08-17T01:36:46.280Z,99824.00
2022-08-17T01:42:52.041Z,99817.00
2022-08-17T01:48:56.674Z,99813.00
2022-08-17T01:54:59.604Z,99824.00
2022-08-17T02:01:03.046Z,99823.00
2022-08-17T02:07:05.327Z,99829.00
2022-08-17T02:13:07.858Z,99839.00
2022-08-17T02:19:13.938Z,99818.00
2022-08-17T02:25:20.944Z,99817.00
2022-08-17T02:31:26.516Z,99809.00
2022-08-17T02:37:30.400Z,99822.00
2022-08-17T02:43:32.917Z,99801.00
2022-08-17T02:49:35.805Z,99802.00
2022-08-17T02:55:40.667Z,99813.00
2022-08-17T03:01:43.492Z,99820.00
2022-08-17T03:07:45.952Z,99812.00
2022-08-17T03:13:48.249Z,99821.00
2022-08-17T03:19:50.507Z,99821.00
2022-08-17T03:25:54.084Z,99836.00
2022-08-17T03:31:56.774Z,99839.00
2022-08-17T03:38:00.778Z,99832.00
2022-08-17T03:44:03.498Z,99835.00
2022-08-17T03:50:25.962Z,99837.00
2022-08-17T03:56:44.089Z,99829.00
2022-08-17T04:02:46.807Z,99834.00
2022-08-17T04:08:49.003Z,99839.00
2022-08-17T04:14:54.372Z,99835.00
2022-08-17T04:20:57.483Z,99839.00
2022-08-17T04:27:02.240Z,99837.00
2022-08-17T04:33:09.571Z,99846.00
2022-08-17T04:39:11.934Z,99839.00
2022-08-17T04:45:14.090Z,99835.00
2022-08-17T04:51:45.477Z,99831.00
2022-08-17T04:57:57.222Z,99831.00
2022-08-17T05:04:33.177Z,99841.00
2022-08-17T05:10:28.474Z,99837.00
2022-08-17T05:16:30.882Z,99835.00
2022-08-17T05:22:33.155Z,99837.00
2022-08-17T05:28:35.361Z,99770.00
2022-08-17T05:34:38.231Z,99781.00
2022-08-17T05:40:41.007Z,99781.00
2022-08-17T05:46:51.189Z,99784.00
2022-08-17T05:53:18.201Z,99780.00
2022-08-17T05:59:55.089Z,99792.00
2022-08-17T06:06:16.210Z,99792.00
2022-08-17T06:12:39.480Z,99792.00
2022-08-17T06:19:00.240Z,99792.00
2022-08-17T06:25:12.679Z,99817.00
2022-08-17T06:31:27.356Z,99809.00
2022-08-17T06:37:44.099Z,99824.00
2022-08-17T06:43:56.598Z,99827.00
2022-08-17T06:50:22.489Z,99822.00
2022-08-17T06:56:53.713Z,99807.00
2022-08-17T07:03:15.992Z,99802.00
2022-08-17T07:09:29.980Z,99809.00
2022-08-17T07:15:43.553Z,99807.00
2022-08-17T07:22:08.650Z,99819.00
2022-08-17T07:28:11.122Z,99823.00
2022-08-17T07:34:15.155Z,99830.00
2022-08-17T07:40:27.458Z,99824.00
2022-08-17T07:47:05.721Z,99826.00
2022-08-17T07:53:25.076Z,99829.00
2022-08-17T07:59:35.619Z,99827.00
2022-08-17T08:05:50.939Z,99826.00
2022-08-17T08:11:53.540Z,99823.00
2022-08-17T08:18:03.247Z,99822.00
2022-08-17T08:24:30.862Z,99819.00
2022-08-17T08:30:41.166Z,99811.00
2022-08-17T08:37:17.592Z,99808.00
2022-08-17T08:43:37.897Z,99805.00
2022-08-17T08:50:05.617Z,99793.00
2022-08-17T08:56:22.224Z,99797.00
2022-08-17T09:02:35.170Z,99788.00
2022-08-17T09:09:15.920Z,99794.00
2022-08-17T09:15:44.377Z,99805.00
2022-08-17T09:21:55.285Z,99799.00
2022-08-17T09:28:13.779Z,99797.00
2022-08-17T09:34:19.713Z,99790.00
2022-08-17T09:40:28.822Z,99788.00
2022-08-17T09:46:38.050Z,99790.00
2022-08-17T09:52:42.615Z,99790.00
2022-08-17T09:59:03.906Z,99787.00
2022-08-17T10:05:14.355Z,99783.00
2022-08-17T10:11:33.242Z,99791.00
2022-08-17T10:17:50.815Z,99789.00
2022-08-17T10:24:36.291Z,99799.00
2022-08-17T10:30:50.785Z,99819.00
2022-08-17T10:37:05.122Z,99801.00
2022-08-17T10:43:33.195Z,99801.00
2022-08-17T10:49:39.738Z,99803.00
2022-08-17T10:56:21.722Z,99798.00
2022-08-17T11:02:54.680Z,99796.00
2022-08-17T11:09:29.448Z,99787.00
2022-08-17T11:15:59.933Z,99787.00
2022-08-17T11:22:33.659Z,99777.00
2022-08-17T11:28:52.466Z,99794.00
2022-08-17T11:35:07.073Z,99789.00
2022-08-17T11:41:28.580Z,99794.00
2022-08-17T11:48:29.106Z,99792.00
2022-08-17T11:54:33.371Z,99787.00
2022-08-17T12:00:45.440Z,99778.00
2022-08-17T12:06:58.902Z,99743.00
2022-08-17T12:13:16.989Z,99689.00
2022-08-17T12:19:22.168Z,99686.00
2022-08-17T12:25:33.530Z,99734.00
2022-08-17T12:31:44.839Z,99763.00
2022-08-17T12:37:50.671Z,99769.00
2022-08-17T12:43:59.258Z,99765.00
2022-08-17T12:50:29.603Z,99758.00
2022-08-17T12:56:31.822Z,99750.00
2022-08-17T13:02:43.076Z,99752.00
2022-08-17T13:08:48.403Z,99760.00
2022-08-17T13:14:51.196Z,99754.00
2022-08-17T13:20:56.303Z,99753.00
2022-08-17T13:27:01.768Z,99751.00
2022-08-17T13:33:43.415Z,99757.00
2022-08-17T13:39:47.740Z,99751.00
2022-08-17T13:45:52.198Z,99751.00
2022-08-17T13:51:54.597Z,99755.00
2022-08-17T13:58:03.967Z,99774.00
2022-08-17T14:04:22.631Z,99782.00
2022-08-17T14:10:26.051Z,99783.00
2022-08-17T14:16:28.278Z,99786.00
2022-08-17T14:22:35.009Z,99773.00
2022-08-17T14:28:39.109Z,99770.00
2022-08-17T14:34:57.973Z,99775.00
2022-08-17T14:41:00.218Z,99778.00
2022-08-17T14:47:04.683Z,99785.00
2022-08-17T14:53:10.622Z,99790.00
2022-08-17T14:59:14.580Z,99789.00
2022-08-17T15:05:17.794Z,99807.00
2022-08-17T15:11:23.325Z,99805.00
2022-08-17T15:17:25.571Z,99791.00
2022-08-17T15:23:46.971Z,99783.00
2022-08-17T15:29:49.616Z,99788.00
2022-08-17T15:35:53.848Z,99788.00
2022-08-17T15:41:58.393Z,99800.00
2022-08-17T15:48:01.387Z,99798.00
2022-08-17T15:54:22.133Z,99809.00
2022-08-17T16:00:26.552Z,99810.00
2022-08-17T16:06:30.184Z,99802.00
2022-08-17T16:12:33.153Z,99811.00
2022-08-17T16:18:36.722Z,99817.00
2022-08-17T16:24:47.666Z,99817.00
2022-08-17T16:31:00.023Z,99828.00
2022-08-17T16:37:02.418Z,99828.00
2022-08-17T16:43:10.844Z,99832.00
2022-08-17T16:49:24.447Z,99839.00
2022-08-17T16:55:37.205Z,99839.00
2022-08-17T17:01:42.113Z,99846.00
2022-08-17T17:08:01.112Z,99842.00
2022-08-17T17:14:07.746Z,99856.00
2022-08-17T17:20:33.549Z,99860.00
2022-08-17T17:26:55.702Z,99864.00
2022-08-17T17:33:14.101Z,99868.00
2022-08-17T17:39:32.609Z,99871.00
2022-08-17T17:45:44.530Z,99878.00
2022-08-17T17:52:16.804Z,99886.00
2022-08-17T17:58:39.427Z,99887.00
2022-08-17T18:04:57.064Z,99894.00
2022-08-17T18:11:08.133Z,99897.00
2022-08-17T18:17:12.882Z,99899.00
2022-08-17T18:23:15.106Z,99899.00
2022-08-17T18:29:36.841Z,99909.00
2022-08-17T18:35:58.888Z,99917.00
2022-08-17T18:42:04.302Z,99921.00
2022-08-17T18:48:22.361Z,99929.00
2022-08-17T18:54:25.437Z,99932.00
2022-08-17T19:00:30.609Z,99938.00
2022-08-17T19:06:34.406Z,99937.00
2022-08-17T19:13:12.361Z,99932.00
2022-08-17T19:19:27.151Z,99932.00
2022-08-17T19:25:36.073Z,99944.00
2022-08-17T19:31:38.441Z,99941.00
2022-08-17T19:37:49.837Z,99932.00
2022-08-17T19:44:13.691Z,99927.00
2022-08-17T19:50:25.723Z,99931.00
2022-08-17T19:56:41.734Z,99936.00
2022-08-17T20:02:49.967Z,99928.00
2022-08-17T20:08:58.287Z,99937.00
2022-08-17T20:15:22.973Z,99940.00
2022-08-17T20:21:34.313Z,99945.00
2022-08-17T20:28:05.568Z,99958.00
2022-08-17T20:34:33.597Z,99975.00
2022-08-17T20:41:01.455Z,99975.00
2022-08-17T20:47:13.383Z,99973.00
2022-08-17T20:53:47.229Z,99964.00
2022-08-17T20:59:49.451Z,99963.00
2022-08-17T21:06:17.533Z,99971.00
2022-08-17T21:12:39.927Z,99983.00
2022-08-17T21:18:49.618Z,99979.00
2022-08-17T21:25:10.489Z,99992.00
2022-08-17T21:31:30.389Z,99990.00
2022-08-17T21:37:45.493Z,99997.00
2022-08-17T21:43:51.296Z,100010.00
2022-08-17T21:49:54.973Z,100012.00
2022-08-17T21:55:57.490Z,100012.00
2022-08-17T22:02:03.260Z,100010.00
2022-08-17T22:08:18.623Z,100009.00
2022-08-17T22:14:51.720Z,100006.00
2022-08-17T22:20:58.716Z,100001.00
2022-08-17T22:27:08.927Z,99997.00
2022-08-17T22:33:29.894Z,100006.00
2022-08-17T22:39:35.379Z,99995.00
2022-08-17T22:45:54.898Z,100000.00
2022-08-17T22:52:08.288Z,99987.00
2022-08-17T22:58:35.379Z,99992.00
2022-08-17T23:04:40.443Z,99981.00
2022-08-17T23:10:43.378Z,99987.00
2022-08-17T23:16:45.713Z,99993.00
2022-08-17T23:22:51.835Z,99996.00
2022-08-17T23:28:55.154Z,99996.00
2022-08-17T23:34:59.601Z,99995.00
2022-08-17T23:41:08.338Z,99991.00
2022-08-17T23:47:11.770Z,99991.00
2022-08-17T23:53:14.249Z,99980.00
2022-08-17T23:59:19.010Z,99991.00
